TimeEDT,TemperatureF,Dew PointF,Humidity,Sea Level PressureIn,VisibilityMPH,Wind Direction,Wind SpeedMPH,Gust SpeedMPH,PrecipitationIn,Events,Conditions,WindDirDegrees,DateUTC
12:53 AM,73.9,69.1,85,29.63,10.0,West,8.1,-,N/A,,Scattered Clouds,270,2013-06-29 04:53:00
1:53 AM,72.0,68.0,87,29.62,10.0,Calm,Calm,-,N/A,,Clear,0,2013-06-29 05:53:00
2:53 AM,72.0,69.1,91,29.63,10.0,SSW,4.6,-,N/A,,Mostly Cloudy,210,2013-06-29 06:53:00
3:53 AM,71.1,69.1,93,29.63,10.0,SSW,4.6,-,N/A,,Overcast,200,2013-06-29 07:53:00
4:53 AM,71.1,69.1,93,29.63,10.0,Calm,Calm,-,N/A,,Partly Cloudy,0,2013-06-29 08:53:00
5:53 AM,70.0,69.1,97,29.64,8.0,SSW,3.5,-,N/A,,Clear,200,2013-06-29 09:53:00
6:35 AM,69.8,69.8,100,29.69,7.0,SSW,5.8,-,N/A,,Scattered Clouds,210,2013-06-29 10:35:00
6:42 AM,71.6,69.8,94,29.69,7.0,SSW,5.8,-,N/A,,Overcast,210,2013-06-29 10:42:00
6:51 AM,71.6,69.8,94,29.69,6.0,SW,6.9,-,N/A,,Scattered Clouds,220,2013-06-29 10:51:00
6:53 AM,71.1,69.1,93,29.65,6.0,SW,6.9,-,N/A,,Scattered Clouds,220,2013-06-29 10:53:00
7:09 AM,71.6,69.8,94,29.69,6.0,WSW,3.5,-,N/A,,Mostly Cloudy,240,2013-06-29 11:09:00
7:53 AM,72.0,70.0,93,29.67,9.0,SW,5.8,-,N/A,,Overcast,230,2013-06-29 11:53:00
8:38 AM,73.4,69.8,88,29.70,10.0,SSW,4.6,-,N/A,,Overcast,210,2013-06-29 12:38:00
8:53 AM,73.0,70.0,90,29.68,10.0,SW,4.6,-,N/A,,Mostly Cloudy,230,2013-06-29 12:53:00
9:23 AM,73.4,69.8,88,29.71,10.0,SSW,4.6,-,N/A,,Scattered Clouds,200,2013-06-29 13:23:00
9:53 AM,75.0,70.0,84,29.67,10.0,South,5.8,-,N/A,,Clear,190,2013-06-29 13:53:00
10:53 AM,78.1,70.0,76,29.67,10.0,SSW,6.9,-,N/A,,Clear,210,2013-06-29 14:53:00
11:53 AM,80.1,69.1,69,29.67,10.0,SSW,6.9,-,N/A,,Scattered Clouds,200,2013-06-29 15:53:00
12:53 PM,84.0,68.0,58,29.66,10.0,SSW,8.1,-,N/A,,Clear,210,2013-06-29 16:53:00
1:53 PM,87.1,66.0,49,29.65,10.0,SSW,9.2,16.1,N/A,,Partly Cloudy,210,2013-06-29 17:53:00
2:53 PM,88.0,64.0,45,29.63,10.0,WSW,10.4,-,N/A,,Clear,240,2013-06-29 18:53:00
3:53 PM,87.1,62.1,43,29.62,10.0,West,10.4,-,N/A,,Partly Cloudy,260,2013-06-29 19:53:00
4:53 PM,87.1,63.0,44,29.63,10.0,WSW,11.5,-,N/A,,Scattered Clouds,240,2013-06-29 20:53:00
5:53 PM,86.0,62.1,44,29.62,10.0,WSW,6.9,-,N/A,,Partly Cloudy,250,2013-06-29 21:53:00
6:53 PM,84.9,63.0,48,29.62,10.0,SW,6.9,-,N/A,,Partly Cloudy,220,2013-06-29 22:53:00
7:53 PM,81.0,70.0,69,29.64,10.0,South,10.4,-,N/A,,Clear,180,2013-06-29 23:53:00
8:53 PM,78.1,69.1,74,29.65,10.0,South,9.2,-,N/A,,Clear,180,2013-06-30 00:53:00
9:53 PM,75.9,66.0,71,29.68,10.0,SSW,10.4,-,N/A,,Clear,200,2013-06-30 01:53:00
10:53 PM,73.9,66.0,76,29.69,10.0,SW,8.1,-,N/A,,Clear,220,2013-06-30 02:53:00
11:53 PM,73.0,66.9,81,29.70,10.0,SW,4.6,-,N/A,,Mostly Cloudy,220,2013-06-30 03:53:00